Terminal Aerodrome Forecast
Issued by NWS

Home | Current Version | Previous Version | Text Only | Print | Product List | Glossary Off
Versions: 1 2 3 4 5 6 7 8 9 10 11 12 13 14 15 16 17 18 19 20 21 22 23 24 25

070
FTUS43 KLOT 150828 AAC
TAFDPA
TAF AMD
KDPA 150828Z 1508/1606 22015G23KT P6SM BKN013 OVC020
      TEMPO 1508/1510 6SM -SHRA SCT005 OVC008
     FM151115 28020G30KT P6SM OVC015
     FM151700 31017G26KT P6SM BKN030
     FM152000 32014G22KT P6SM BKN040
     FM152300 32010KT P6SM BKN050
     FM160300 29005KT P6SM SCT250=

USA.gov is the U.S. government's official web portal to all federal, state and local government web resources and services.